createdAt,value
2022-08-31T00:00:13.378Z,8.00
2022-08-31T00:01:13.537Z,12.88
2022-08-31T00:02:13.646Z,7.28
2022-08-31T00:03:13.653Z,10.68
2022-08-31T00:04:13.594Z,12.76
2022-08-31T00:05:13.460Z,13.68
2022-08-31T00:06:13.302Z,8.96
2022-08-31T00:07:13.204Z,7.20
2022-08-31T00:08:13.444Z,3.68
2022-08-31T00:09:14.208Z,3.00
2022-08-31T00:10:13.107Z,2.40
2022-08-31T00:11:13.281Z,3.32
2022-08-31T00:12:13.081Z,8.16
2022-08-31T00:13:13.218Z,16.04
2022-08-31T00:14:14.289Z,10.80
2022-08-31T00:15:13.316Z,7.40
2022-08-31T00:16:13.440Z,7.16
2022-08-31T00:17:13.318Z,9.32
2022-08-31T00:18:13.228Z,8.28
2022-08-31T00:19:13.033Z,4.12
2022-08-31T00:20:32.293Z,3.80
2022-08-31T00:21:13.097Z,8.36
2022-08-31T00:22:13.145Z,2.92
2022-08-31T00:23:13.057Z,12.56
2022-08-31T00:24:12.904Z,9.64
2022-08-31T00:25:12.877Z,9.12
2022-08-31T00:26:14.113Z,8.36
2022-08-31T00:27:12.987Z,6.44
2022-08-31T00:28:12.823Z,11.04
2022-08-31T00:29:13.707Z,6.96
2022-08-31T00:30:13.553Z,7.24
2022-08-31T00:31:13.490Z,7.92
2022-08-31T00:32:13.406Z,4.24
2022-08-31T00:33:13.604Z,8.08
2022-08-31T00:34:13.711Z,5.80
2022-08-31T00:35:13.642Z,8.52
2022-08-31T00:36:13.805Z,2.68
2022-08-31T00:37:13.680Z,0.64
2022-08-31T00:38:14.311Z,4.76
2022-08-31T00:39:13.879Z,9.84
2022-08-31T00:40:13.869Z,5.20
2022-08-31T00:41:12.770Z,5.32
2022-08-31T00:42:13.791Z,3.68
2022-08-31T00:43:14.205Z,2.80
2022-08-31T00:44:13.179Z,4.80
2022-08-31T00:45:13.254Z,5.08
2022-08-31T00:46:34.486Z,2.56
2022-08-31T00:47:13.674Z,9.36
2022-08-31T00:48:15.045Z,4.68
2022-08-31T00:49:12.969Z,3.56
2022-08-31T00:50:13.201Z,5.76
2022-08-31T00:51:15.275Z,2.40
2022-08-31T00:52:12.804Z,6.08
2022-08-31T00:53:14.035Z,4.44
2022-08-31T00:54:13.154Z,6.12
2022-08-31T00:55:13.219Z,8.88
2022-08-31T00:56:13.378Z,7.96
2022-08-31T00:57:13.648Z,11.48
2022-08-31T00:58:13.491Z,7.08
2022-08-31T00:59:13.504Z,6.00
2022-08-31T01:00:18.427Z,5.84
2022-08-31T01:01:13.650Z,7.08
2022-08-31T01:02:13.455Z,12.48
2022-08-31T01:03:13.661Z,6.36
2022-08-31T01:04:14.003Z,6.80
2022-08-31T01:05:13.216Z,4.56
2022-08-31T01:06:13.146Z,9.52
2022-08-31T01:07:13.074Z,1.08
2022-08-31T01:08:13.338Z,3.60
2022-08-31T01:09:13.402Z,2.64
2022-08-31T01:10:13.439Z,3.12
2022-08-31T01:11:13.792Z,10.88
2022-08-31T01:12:13.649Z,5.40
2022-08-31T01:13:13.786Z,11.96
2022-08-31T01:14:13.760Z,9.56
2022-08-31T01:15:13.601Z,8.56
2022-08-31T01:16:13.535Z,5.96
2022-08-31T01:17:13.422Z,8.12
2022-08-31T01:18:13.321Z,8.28
2022-08-31T01:19:12.968Z,5.64
2022-08-31T01:20:12.837Z,7.04
2022-08-31T01:21:13.986Z,4.56
2022-08-31T01:22:13.240Z,8.08
2022-08-31T01:23:13.364Z,5.68
2022-08-31T01:24:13.696Z,8.80
2022-08-31T01:25:13.628Z,6.84
2022-08-31T01:26:13.805Z,6.28
2022-08-31T01:27:13.704Z,5.36
2022-08-31T01:28:13.481Z,11.68
2022-08-31T01:29:13.464Z,9.88
2022-08-31T01:30:13.261Z,4.24
2022-08-31T01:31:13.394Z,7.68
2022-08-31T01:32:13.443Z,12.24
2022-08-31T01:33:13.455Z,11.68
2022-08-31T01:34:13.363Z,10.40
2022-08-31T01:35:13.492Z,9.12
2022-08-31T01:36:15.962Z,10.44
2022-08-31T01:37:13.662Z,4.20
2022-08-31T01:38:13.520Z,9.16
2022-08-31T01:39:13.691Z,7.00
2022-08-31T01:40:13.573Z,10.52
2022-08-31T01:41:14.316Z,10.68
2022-08-31T01:42:13.900Z,7.12
2022-08-31T01:43:13.094Z,18.76
2022-08-31T01:44:13.305Z,7.84
2022-08-31T01:45:13.400Z,14.76
2022-08-31T01:46:13.326Z,8.80
2022-08-31T01:47:14.922Z,11.20
2022-08-31T01:48:12.807Z,8.76
2022-08-31T01:49:13.625Z,12.00
2022-08-31T01:50:13.718Z,9.20
2022-08-31T01:51:13.848Z,5.28
2022-08-31T01:52:13.976Z,10.32
2022-08-31T01:53:13.275Z,9.08
2022-08-31T01:54:13.705Z,3.64
2022-08-31T01:55:13.873Z,3.56
2022-08-31T01:56:14.112Z,2.48
2022-08-31T01:57:13.252Z,6.20
2022-08-31T01:58:13.133Z,8.72
2022-08-31T01:59:13.125Z,6.48
2022-08-31T02:00:13.074Z,14.00
2022-08-31T02:01:33.943Z,13.12
2022-08-31T02:02:13.868Z,7.04
2022-08-31T02:03:12.754Z,12.36
2022-08-31T02:04:13.549Z,15.44
2022-08-31T02:05:13.414Z,11.00
2022-08-31T02:06:13.318Z,6.72
2022-08-31T02:07:13.329Z,10.16
2022-08-31T02:08:13.193Z,6.32
2022-08-31T02:09:13.213Z,10.32
2022-08-31T02:10:13.218Z,3.52
2022-08-31T02:11:13.282Z,5.24
2022-08-31T02:12:13.670Z,8.36
2022-08-31T02:13:13.719Z,10.12
2022-08-31T02:14:13.700Z,15.08
2022-08-31T02:15:13.714Z,10.24
2022-08-31T02:16:13.730Z,7.88
2022-08-31T02:17:15.157Z,7.76
2022-08-31T02:18:13.178Z,7.64
2022-08-31T02:19:13.812Z,13.36
2022-08-31T02:20:15.252Z,11.08
2022-08-31T02:21:13.176Z,11.32
2022-08-31T02:22:13.208Z,8.08
2022-08-31T02:23:13.345Z,12.24
2022-08-31T02:24:15.164Z,16.16
2022-08-31T02:25:13.058Z,7.28
2022-08-31T02:26:12.861Z,6.36
2022-08-31T02:27:13.766Z,8.24
2022-08-31T02:28:13.660Z,8.84
2022-08-31T02:29:13.920Z,8.04
2022-08-31T02:30:12.894Z,13.88
2022-08-31T02:31:12.809Z,8.44
2022-08-31T02:32:20.137Z,8.08
2022-08-31T02:33:13.745Z,8.60
2022-08-31T02:34:13.998Z,13.92
2022-08-31T02:35:12.998Z,21.68
2022-08-31T02:36:13.172Z,5.56
2022-08-31T02:37:13.426Z,4.04
2022-08-31T02:38:13.310Z,10.00
2022-08-31T02:39:13.236Z,24.76
2022-08-31T02:40:13.387Z,17.04
2022-08-31T02:41:13.495Z,16.52
2022-08-31T02:42:13.643Z,17.56
2022-08-31T02:43:24.288Z,16.92
2022-08-31T02:44:13.187Z,17.64
2022-08-31T02:45:13.152Z,9.52
2022-08-31T02:46:13.203Z,12.28
2022-08-31T02:47:13.207Z,11.24
2022-08-31T02:48:13.153Z,13.60
2022-08-31T02:49:14.054Z,7.64
2022-08-31T02:50:12.923Z,5.36
2022-08-31T02:51:12.813Z,11.64
2022-08-31T02:52:13.785Z,10.24
2022-08-31T02:53:13.974Z,10.32
2022-08-31T02:54:13.120Z,9.60
2022-08-31T02:55:13.204Z,6.16
2022-08-31T02:56:13.139Z,18.16
2022-08-31T02:57:12.959Z,14.52
2022-08-31T02:58:12.785Z,8.32
2022-08-31T02:59:13.659Z,4.56
2022-08-31T03:00:13.735Z,5.64
2022-08-31T03:01:14.113Z,6.72
2022-08-31T03:02:13.354Z,10.80
2022-08-31T03:03:13.413Z,10.44
2022-08-31T03:04:13.529Z,9.84
2022-08-31T03:05:13.412Z,8.72
2022-08-31T03:06:13.441Z,5.72
2022-08-31T03:07:13.527Z,5.56
2022-08-31T03:08:13.480Z,10.48
2022-08-31T03:09:13.602Z,9.88
2022-08-31T03:10:13.572Z,4.76
2022-08-31T03:11:13.416Z,9.32
2022-08-31T03:12:13.287Z,4.48
2022-08-31T03:13:13.121Z,10.72
2022-08-31T03:14:13.537Z,9.84
2022-08-31T03:15:13.594Z,9.44
2022-08-31T03:16:13.677Z,6.52
2022-08-31T03:17:14.047Z,6.28
2022-08-31T03:18:13.042Z,7.64
2022-08-31T03:19:13.072Z,1.24
2022-08-31T03:20:12.869Z,2.80
2022-08-31T03:21:13.903Z,5.00
2022-08-31T03:22:12.822Z,4.00
2022-08-31T03:23:13.874Z,0.08
2022-08-31T03:24:12.943Z,4.68
2022-08-31T03:25:12.953Z,2.44
2022-08-31T03:26:12.831Z,5.32
2022-08-31T03:27:14.209Z,4.88
2022-08-31T03:28:13.036Z,2.72
2022-08-31T03:29:13.067Z,9.20
2022-08-31T03:30:13.264Z,9.88
2022-08-31T03:31:13.267Z,8.61
2022-08-31T03:32:13.263Z,10.52
2022-08-31T03:33:13.122Z,4.72
2022-08-31T03:34:15.889Z,8.24
2022-08-31T03:35:13.211Z,8.56
2022-08-31T03:36:13.105Z,12.28
2022-08-31T03:37:13.034Z,16.16
2022-08-31T03:38:13.203Z,6.36
2022-08-31T03:39:13.323Z,4.08
2022-08-31T03:40:13.228Z,3.64
2022-08-31T03:41:13.539Z,2.24
2022-08-31T03:42:13.867Z,3.36
2022-08-31T03:43:14.175Z,0.28
2022-08-31T03:44:14.758Z,1.76
2022-08-31T03:45:13.596Z,1.08
2022-08-31T03:46:13.565Z,6.68
2022-08-31T03:47:14.638Z,7.04
2022-08-31T03:48:13.392Z,5.84
2022-08-31T03:49:14.851Z,3.44
2022-08-31T03:50:13.880Z,2.96
2022-08-31T03:51:13.687Z,2.60
2022-08-31T03:52:13.556Z,5.36
2022-08-31T03:53:13.444Z,3.00
2022-08-31T03:54:13.355Z,5.72
2022-08-31T03:55:13.202Z,3.08
2022-08-31T03:56:13.106Z,6.00
2022-08-31T03:57:12.934Z,4.24
2022-08-31T03:58:12.949Z,2.68
2022-08-31T03:59:13.131Z,3.40
2022-08-31T04:00:12.963Z,4.32
2022-08-31T04:01:13.319Z,4.12
2022-08-31T04:02:13.569Z,6.20
2022-08-31T04:03:13.869Z,7.12
2022-08-31T04:04:13.199Z,4.56
2022-08-31T04:05:13.427Z,3.20
2022-08-31T04:06:13.408Z,8.92
2022-08-31T04:07:13.591Z,5.96
2022-08-31T04:08:13.490Z,9.04
2022-08-31T04:09:13.389Z,4.48
2022-08-31T04:10:13.643Z,10.40
2022-08-31T04:11:13.731Z,5.64
2022-08-31T04:12:13.601Z,6.68
2022-08-31T04:13:13.489Z,10.96
2022-08-31T04:15:13.841Z,9.12
2022-08-31T04:16:14.205Z,8.20
2022-08-31T04:17:13.223Z,5.08
2022-08-31T04:18:13.499Z,7.52
2022-08-31T04:19:13.627Z,9.76
2022-08-31T04:20:13.809Z,6.64
2022-08-31T04:21:14.017Z,2.08
2022-08-31T04:22:12.979Z,4.60
2022-08-31T04:23:12.915Z,5.00
2022-08-31T04:24:13.081Z,4.76
2022-08-31T04:25:13.147Z,3.60
2022-08-31T04:26:13.370Z,7.28
2022-08-31T04:27:13.273Z,7.68
2022-08-31T04:28:13.184Z,11.84
2022-08-31T04:29:13.819Z,4.60
2022-08-31T04:31:14.556Z,5.76
2022-08-31T04:31:15.944Z,5.76
2022-08-31T04:32:12.842Z,1.48
2022-08-31T04:33:13.973Z,4.88
2022-08-31T04:34:13.083Z,2.88
2022-08-31T04:35:12.973Z,6.84
2022-08-31T04:36:13.251Z,6.40
2022-08-31T04:37:13.693Z,8.88
2022-08-31T04:38:13.570Z,5.40
2022-08-31T04:39:13.623Z,7.16
2022-08-31T04:40:13.924Z,8.56
2022-08-31T04:41:13.228Z,15.52
2022-08-31T04:42:13.031Z,10.16
2022-08-31T04:43:12.865Z,22.96
2022-08-31T04:44:19.181Z,17.52
2022-08-31T04:45:13.005Z,11.40
2022-08-31T04:46:12.988Z,12.20
2022-08-31T04:47:12.903Z,3.24
2022-08-31T04:48:13.027Z,6.44
2022-08-31T04:49:13.183Z,5.40
2022-08-31T04:50:13.127Z,6.28
2022-08-31T04:51:13.252Z,9.96
2022-08-31T04:52:14.993Z,12.56
2022-08-31T04:53:13.450Z,9.56
2022-08-31T04:54:13.536Z,3.68
2022-08-31T04:55:13.611Z,12.40
2022-08-31T04:56:13.859Z,10.12
2022-08-31T04:57:13.746Z,6.72
2022-08-31T04:58:13.857Z,10.96
2022-08-31T04:59:13.305Z,11.40
2022-08-31T05:00:13.192Z,14.64
2022-08-31T05:01:13.094Z,10.32
2022-08-31T05:02:13.231Z,6.40
2022-08-31T05:03:13.523Z,5.80
2022-08-31T05:04:13.879Z,4.08
2022-08-31T05:05:13.743Z,8.36
2022-08-31T05:06:13.716Z,6.60
2022-08-31T05:07:13.716Z,3.28
2022-08-31T05:08:13.657Z,5.88
2022-08-31T05:09:13.539Z,5.72
2022-08-31T05:10:13.406Z,5.00
2022-08-31T05:11:13.285Z,7.48
2022-08-31T05:12:13.222Z,23.04
2022-08-31T05:13:13.075Z,15.92
2022-08-31T05:14:13.151Z,9.56
2022-08-31T05:15:13.263Z,14.12
2022-08-31T05:16:13.358Z,12.72
2022-08-31T05:17:14.974Z,3.68
2022-08-31T05:18:13.221Z,8.72
2022-08-31T05:19:13.150Z,7.48
2022-08-31T05:20:13.724Z,7.52
2022-08-31T05:21:14.011Z,8.76
2022-08-31T05:22:14.107Z,6.96
2022-08-31T05:23:18.627Z,6.48
2022-08-31T05:24:13.583Z,7.96
2022-08-31T05:25:13.482Z,8.28
2022-08-31T05:26:13.469Z,7.20
2022-08-31T05:27:13.816Z,6.20
2022-08-31T05:28:13.618Z,8.44
2022-08-31T05:29:13.809Z,11.16
2022-08-31T05:30:13.662Z,7.76
2022-08-31T05:31:14.324Z,4.08
2022-08-31T05:32:13.388Z,14.32
2022-08-31T05:33:13.622Z,4.32
2022-08-31T05:34:13.767Z,4.36
2022-08-31T05:35:13.658Z,7.52
2022-08-31T05:36:14.805Z,12.60
2022-08-31T05:37:13.728Z,8.20
2022-08-31T05:38:13.572Z,7.64
2022-08-31T05:39:13.616Z,12.32
2022-08-31T05:40:13.520Z,7.40
2022-08-31T05:41:13.479Z,11.52
2022-08-31T05:42:13.460Z,9.00
2022-08-31T05:43:13.466Z,10.76
2022-08-31T05:44:13.525Z,10.40
2022-08-31T05:45:13.585Z,8.56
2022-08-31T05:46:13.847Z,3.08
2022-08-31T05:47:13.131Z,2.32
2022-08-31T05:48:13.014Z,6.36
2022-08-31T05:49:13.740Z,11.12
2022-08-31T05:50:13.870Z,5.52
2022-08-31T05:51:13.194Z,3.64
2022-08-31T05:52:13.035Z,1.28
2022-08-31T05:53:13.184Z,7.80
2022-08-31T05:54:13.150Z,7.40
2022-08-31T05:55:13.189Z,12.20
2022-08-31T05:56:13.416Z,11.24
2022-08-31T05:57:13.272Z,12.52
2022-08-31T05:58:13.506Z,8.00
2022-08-31T05:59:13.451Z,7.92
2022-08-31T06:00:13.666Z,10.16
2022-08-31T06:01:13.708Z,11.32
2022-08-31T06:02:14.969Z,12.00
2022-08-31T06:03:12.915Z,8.08
2022-08-31T06:04:12.931Z,9.12
2022-08-31T06:05:12.898Z,8.56
2022-08-31T06:06:13.039Z,6.48
2022-08-31T06:07:13.100Z,9.84
2022-08-31T06:08:15.251Z,8.92
2022-08-31T06:09:13.584Z,12.36
2022-08-31T06:10:13.569Z,4.96
2022-08-31T06:11:13.489Z,6.32
2022-08-31T06:12:13.754Z,7.28
2022-08-31T06:13:13.969Z,7.92
2022-08-31T06:14:13.336Z,5.12
2022-08-31T06:15:13.418Z,4.92
2022-08-31T06:16:13.363Z,2.84
2022-08-31T06:17:13.463Z,1.60
2022-08-31T06:18:13.578Z,2.08
2022-08-31T06:19:15.364Z,1.88
2022-08-31T06:20:17.577Z,6.32
2022-08-31T06:21:13.087Z,5.40
2022-08-31T06:22:12.973Z,5.88
2022-08-31T06:23:13.025Z,6.28
2022-08-31T06:24:12.996Z,6.68
2022-08-31T06:25:13.043Z,4.28
2022-08-31T06:26:13.067Z,4.84
2022-08-31T06:27:13.382Z,2.36
2022-08-31T06:28:13.453Z,6.84
2022-08-31T06:29:13.299Z,4.84
2022-08-31T06:30:13.331Z,4.68
2022-08-31T06:31:13.315Z,4.20
2022-08-31T06:32:13.587Z,5.12
2022-08-31T06:33:13.425Z,6.80
2022-08-31T06:34:13.423Z,2.80
2022-08-31T06:35:13.563Z,4.24
2022-08-31T06:36:13.648Z,3.68
2022-08-31T06:37:18.783Z,3.84
2022-08-31T06:38:13.295Z,2.36
2022-08-31T06:39:13.242Z,5.56
2022-08-31T06:40:13.443Z,7.32
2022-08-31T06:41:13.386Z,5.12
2022-08-31T06:42:13.301Z,7.00
2022-08-31T06:43:13.336Z,16.52
2022-08-31T06:44:13.758Z,6.12
2022-08-31T06:45:13.710Z,6.56
2022-08-31T06:46:18.911Z,15.96
2022-08-31T06:47:12.961Z,8.92
2022-08-31T06:48:12.814Z,11.28
2022-08-31T06:49:13.645Z,10.96
2022-08-31T06:50:13.677Z,12.04
2022-08-31T06:51:13.505Z,5.00
2022-08-31T06:52:13.446Z,6.60
2022-08-31T06:53:13.504Z,8.64
2022-08-31T06:54:29.091Z,8.04
2022-08-31T06:55:12.960Z,9.24
2022-08-31T06:56:20.420Z,5.64
2022-08-31T06:57:13.840Z,12.08
2022-08-31T06:58:13.743Z,6.40
2022-08-31T06:59:18.868Z,12.72
2022-08-31T07:00:13.780Z,6.60
2022-08-31T07:01:13.727Z,12.80
2022-08-31T07:02:15.005Z,8.32
2022-08-31T07:03:13.323Z,10.88
2022-08-31T07:04:13.433Z,9.40
2022-08-31T07:05:24.530Z,7.52
2022-08-31T07:06:13.294Z,11.08
2022-08-31T07:07:13.539Z,14.56
2022-08-31T07:08:13.476Z,7.76
2022-08-31T07:09:13.496Z,9.24
2022-08-31T07:10:13.465Z,6.16
2022-08-31T07:11:13.499Z,8.52
2022-08-31T07:12:13.753Z,9.40
2022-08-31T07:13:13.543Z,6.48
2022-08-31T07:14:13.641Z,4.84
2022-08-31T07:15:13.673Z,5.16
2022-08-31T07:16:13.914Z,11.40
2022-08-31T07:17:13.275Z,5.88
2022-08-31T07:18:13.439Z,8.68
2022-08-31T07:19:13.628Z,10.28
2022-08-31T07:20:13.550Z,7.16
2022-08-31T07:21:13.482Z,8.80
2022-08-31T07:22:13.546Z,3.88
2022-08-31T07:23:13.758Z,6.92
2022-08-31T07:24:13.649Z,3.44
2022-08-31T07:25:13.523Z,5.96
2022-08-31T07:26:15.251Z,6.56
2022-08-31T07:27:13.247Z,8.68
2022-08-31T07:28:13.503Z,11.12
2022-08-31T07:29:13.330Z,6.92
2022-08-31T07:30:13.908Z,1.00
2022-08-31T07:31:14.825Z,1.88
2022-08-31T07:32:13.868Z,6.36
2022-08-31T07:33:14.006Z,7.04
2022-08-31T07:34:13.316Z,11.20
2022-08-31T07:35:13.541Z,4.52
2022-08-31T07:36:13.495Z,5.72
2022-08-31T07:37:13.516Z,2.16
2022-08-31T07:38:14.093Z,4.04
2022-08-31T07:39:13.084Z,22.72
2022-08-31T07:40:13.115Z,20.56
2022-08-31T07:41:13.240Z,6.36
2022-08-31T07:42:13.041Z,5.80
2022-08-31T07:43:13.360Z,12.84
2022-08-31T07:44:13.646Z,7.64
2022-08-31T07:45:13.715Z,9.36
2022-08-31T07:46:13.606Z,8.12
2022-08-31T07:47:13.469Z,14.56
2022-08-31T07:48:13.386Z,10.08
2022-08-31T07:49:13.507Z,10.20
2022-08-31T07:50:13.420Z,11.48
2022-08-31T07:51:15.313Z,9.24
2022-08-31T07:52:13.365Z,7.28
2022-08-31T07:53:13.660Z,11.84
2022-08-31T07:54:13.834Z,7.92
2022-08-31T07:55:13.729Z,6.08
2022-08-31T07:56:14.006Z,13.16
2022-08-31T07:57:12.926Z,16.00
2022-08-31T07:58:13.501Z,23.68
2022-08-31T07:59:14.459Z,8.04
2022-08-31T08:00:13.444Z,2.84
2022-08-31T08:01:13.370Z,7.40
2022-08-31T08:02:17.235Z,13.92
2022-08-31T08:03:18.884Z,9.08
2022-08-31T08:04:12.852Z,7.52
2022-08-31T08:05:14.031Z,7.00
2022-08-31T08:06:12.928Z,14.96
2022-08-31T08:07:12.924Z,7.76
2022-08-31T08:08:15.673Z,12.20
2022-08-31T08:09:24.163Z,13.24
2022-08-31T08:10:14.608Z,10.08
2022-08-31T08:11:15.513Z,2.92
2022-08-31T08:12:13.081Z,14.84
2022-08-31T08:13:13.805Z,8.92
2022-08-31T08:14:14.118Z,20.32
2022-08-31T08:15:13.104Z,14.32
2022-08-31T08:16:13.065Z,13.04
2022-08-31T08:17:13.356Z,18.04
2022-08-31T08:18:13.312Z,11.32
2022-08-31T08:19:13.528Z,13.88
2022-08-31T08:20:13.983Z,11.20
2022-08-31T08:21:13.550Z,17.24
2022-08-31T08:22:26.142Z,19.08
2022-08-31T08:23:26.881Z,18.20
2022-08-31T08:24:13.661Z,8.76
2022-08-31T08:25:13.459Z,13.52
2022-08-31T08:26:21.227Z,5.08
2022-08-31T08:27:13.821Z,12.36
2022-08-31T08:28:36.019Z,7.72
2022-08-31T08:29:13.464Z,12.96
2022-08-31T08:30:13.341Z,8.32
2022-08-31T08:31:13.309Z,13.16
2022-08-31T08:32:17.399Z,24.44
2022-08-31T08:33:13.657Z,8.24
2022-08-31T08:34:13.829Z,9.28
2022-08-31T08:35:13.909Z,14.16
2022-08-31T08:36:13.107Z,18.80
2022-08-31T08:37:13.006Z,4.80
2022-08-31T08:38:13.011Z,9.12
2022-08-31T08:39:13.414Z,9.20
2022-08-31T08:40:13.428Z,5.84
2022-08-31T08:41:13.452Z,6.68
2022-08-31T08:42:13.731Z,7.44
2022-08-31T08:43:13.702Z,12.68
2022-08-31T08:44:16.759Z,4.88
2022-08-31T08:45:12.916Z,4.80
2022-08-31T08:46:33.606Z,8.28
2022-08-31T08:47:13.601Z,10.88
2022-08-31T08:48:13.478Z,9.28
2022-08-31T08:49:13.314Z,10.48
2022-08-31T08:50:13.318Z,4.84
2022-08-31T08:51:13.598Z,7.16
2022-08-31T08:52:13.849Z,13.20
2022-08-31T08:53:14.106Z,5.36
2022-08-31T08:54:13.099Z,10.52
2022-08-31T08:55:12.984Z,9.56
2022-08-31T08:56:32.421Z,16.32
2022-08-31T08:57:13.923Z,4.80
2022-08-31T08:58:13.575Z,13.52
2022-08-31T08:59:19.232Z,8.84
2022-08-31T09:00:13.343Z,12.52
2022-08-31T09:01:13.847Z,28.04
2022-08-31T09:02:14.094Z,38.08
2022-08-31T09:03:13.077Z,29.32
2022-08-31T09:04:15.708Z,11.40
2022-08-31T09:05:13.805Z,26.40
2022-08-31T09:06:14.583Z,34.36
2022-08-31T09:07:13.509Z,22.84
2022-08-31T09:08:13.403Z,27.04
2022-08-31T09:09:13.568Z,19.88
2022-08-31T09:10:13.474Z,20.32
2022-08-31T09:11:14.036Z,8.72
2022-08-31T09:12:14.880Z,17.08
2022-08-31T09:13:13.441Z,16.36
2022-08-31T09:14:14.845Z,17.64
2022-08-31T09:15:13.663Z,21.16
2022-08-31T09:16:13.619Z,25.80
2022-08-31T09:17:13.583Z,31.16
2022-08-31T09:18:16.485Z,20.16
2022-08-31T09:19:14.003Z,19.92
2022-08-31T09:20:13.002Z,36.32
2022-08-31T09:21:12.964Z,30.92
2022-08-31T09:22:12.896Z,29.76
2022-08-31T09:23:18.380Z,23.96
2022-08-31T09:24:13.694Z,21.08
2022-08-31T09:25:13.916Z,30.96
2022-08-31T09:26:13.154Z,12.96
2022-08-31T09:27:13.251Z,31.72
2022-08-31T09:28:13.167Z,30.96
2022-08-31T09:29:13.327Z,18.04
2022-08-31T09:30:14.881Z,9.44
2022-08-31T09:31:13.861Z,11.32
2022-08-31T09:32:14.407Z,20.40
2022-08-31T09:33:13.305Z,27.24
2022-08-31T09:34:13.189Z,14.84
2022-08-31T09:35:13.401Z,12.48
2022-08-31T09:36:13.605Z,23.28
2022-08-31T09:37:16.647Z,34.44
2022-08-31T09:38:13.724Z,40.04
2022-08-31T09:39:15.200Z,24.04
2022-08-31T09:40:14.631Z,25.08
2022-08-31T09:41:15.008Z,28.75
2022-08-31T09:42:12.859Z,14.02
2022-08-31T09:43:13.970Z,8.20
2022-08-31T09:44:13.244Z,10.44
2022-08-31T09:45:14.200Z,12.56
2022-08-31T09:46:13.170Z,11.44
2022-08-31T09:47:13.050Z,7.80
2022-08-31T09:48:12.965Z,14.92
2022-08-31T09:49:14.620Z,13.84
2022-08-31T09:50:13.795Z,15.96
2022-08-31T09:51:14.566Z,13.96
2022-08-31T09:52:13.803Z,12.00
2022-08-31T09:53:19.130Z,21.96
2022-08-31T09:54:13.340Z,29.64
2022-08-31T09:55:13.137Z,28.60
2022-08-31T09:56:13.463Z,33.20
2022-08-31T09:57:13.586Z,27.56
2022-08-31T09:58:13.623Z,18.32
2022-08-31T09:59:13.476Z,16.88
2022-08-31T10:00:16.682Z,11.44
2022-08-31T10:01:13.647Z,30.44
2022-08-31T10:02:13.598Z,19.20
2022-08-31T10:03:14.849Z,15.00
2022-08-31T10:04:15.343Z,4.96
2022-08-31T10:05:13.462Z,12.84
2022-08-31T10:06:13.296Z,13.20
2022-08-31T10:07:13.302Z,26.64
2022-08-31T10:08:17.540Z,9.20
2022-08-31T10:09:13.341Z,11.64
2022-08-31T10:10:28.114Z,5.76
2022-08-31T10:11:13.904Z,14.44
2022-08-31T10:12:13.133Z,16.84
2022-08-31T10:13:13.017Z,21.60
2022-08-31T10:14:13.909Z,13.20
2022-08-31T10:15:15.579Z,12.92
2022-08-31T10:16:13.971Z,21.16
2022-08-31T10:17:14.571Z,32.76
2022-08-31T10:18:13.575Z,16.08
2022-08-31T10:19:14.944Z,19.04
2022-08-31T10:20:16.154Z,10.60
2022-08-31T10:21:13.451Z,21.40
2022-08-31T10:22:14.298Z,29.56
2022-08-31T10:23:13.644Z,31.08
2022-08-31T10:24:16.040Z,30.60
2022-08-31T10:25:12.865Z,22.76
2022-08-31T10:26:15.344Z,25.36
2022-08-31T10:27:13.509Z,32.48
2022-08-31T10:28:14.516Z,22.88
2022-08-31T10:29:20.759Z,24.00
2022-08-31T10:30:14.368Z,26.72
2022-08-31T10:31:14.268Z,22.36
2022-08-31T10:32:13.813Z,17.96
2022-08-31T10:33:13.889Z,28.64
2022-08-31T10:34:16.741Z,23.96
2022-08-31T10:35:14.177Z,16.12
2022-08-31T10:36:13.089Z,20.88
2022-08-31T10:37:12.958Z,22.52
2022-08-31T10:38:19.972Z,30.96
2022-08-31T10:39:15.015Z,15.24
2022-08-31T10:40:16.226Z,24.40
2022-08-31T10:41:13.185Z,22.04
2022-08-31T10:42:13.019Z,20.88
2022-08-31T10:43:14.762Z,8.08
2022-08-31T10:44:15.731Z,28.20
2022-08-31T10:45:18.587Z,40.08
2022-08-31T10:46:12.883Z,33.52
2022-08-31T10:47:21.571Z,27.12
2022-08-31T10:48:13.736Z,20.28
2022-08-31T10:49:16.630Z,31.41
2022-08-31T10:50:13.496Z,20.88
2022-08-31T10:51:14.875Z,32.28
2022-08-31T10:52:13.736Z,19.08
2022-08-31T10:53:14.137Z,9.80
2022-08-31T10:54:13.282Z,6.16
2022-08-31T10:55:16.842Z,21.92
2022-08-31T10:56:15.653Z,15.60
2022-08-31T10:57:21.319Z,13.28
2022-08-31T10:58:16.561Z,16.52
2022-08-31T10:59:13.757Z,18.36
2022-08-31T11:00:18.844Z,13.32
2022-08-31T11:01:18.326Z,12.60
2022-08-31T11:02:13.303Z,4.76
2022-08-31T11:03:14.822Z,2.04
2022-08-31T11:04:15.551Z,2.36
2022-08-31T11:05:13.652Z,8.04
2022-08-31T11:06:17.619Z,11.12
2022-08-31T11:07:13.610Z,22.24
2022-08-31T11:08:17.981Z,34.24
2022-08-31T11:09:15.234Z,16.72
2022-08-31T11:10:18.271Z,16.92
2022-08-31T11:11:14.318Z,24.24
2022-08-31T11:12:20.265Z,15.28
2022-08-31T11:13:13.295Z,19.36
2022-08-31T11:14:16.600Z,18.36
2022-08-31T11:15:20.717Z,16.16
2022-08-31T11:16:14.363Z,17.24
2022-08-31T11:17:14.953Z,24.04
2022-08-31T11:18:14.724Z,27.64
2022-08-31T11:19:16.697Z,11.36
2022-08-31T11:20:16.949Z,25.04
2022-08-31T11:21:15.089Z,25.60
2022-08-31T11:22:17.256Z,19.40
2022-08-31T11:23:19.008Z,17.64
2022-08-31T11:24:14.986Z,27.24
2022-08-31T11:25:17.809Z,26.52
2022-08-31T11:26:15.847Z,24.64
2022-08-31T11:27:18.230Z,22.40
2022-08-31T11:28:16.440Z,16.88
2022-08-31T11:29:15.123Z,16.60
2022-08-31T11:30:14.681Z,11.92
2022-08-31T11:31:16.292Z,16.00
2022-08-31T11:32:16.849Z,9.12
2022-08-31T11:33:13.514Z,32.12
2022-08-31T11:34:16.479Z,21.16
2022-08-31T11:35:16.342Z,26.60
2022-08-31T11:36:18.266Z,20.56
2022-08-31T11:37:13.215Z,10.84
2022-08-31T11:38:14.132Z,19.04
2022-08-31T11:39:17.434Z,11.08
2022-08-31T11:40:22.939Z,17.32
2022-08-31T11:41:16.913Z,16.28
2022-08-31T11:42:16.983Z,17.08
2022-08-31T11:43:15.229Z,11.56
2022-08-31T11:44:14.922Z,8.16
2022-08-31T11:45:19.544Z,16.20
2022-08-31T11:46:17.351Z,16.88
2022-08-31T11:47:19.028Z,27.88
2022-08-31T11:48:13.431Z,27.60
2022-08-31T11:49:18.180Z,13.32
2022-08-31T11:50:16.044Z,23.60
2022-08-31T11:51:16.838Z,37.36
2022-08-31T11:52:15.489Z,26.48
2022-08-31T11:53:15.306Z,30.16
2022-08-31T11:54:14.751Z,27.96
2022-08-31T11:55:19.075Z,12.84
2022-08-31T11:56:17.837Z,8.00
2022-08-31T11:57:16.983Z,42.72
2022-08-31T11:58:21.266Z,45.16
2022-08-31T11:59:17.797Z,19.84
2022-08-31T12:00:18.635Z,31.32
2022-08-31T12:01:19.770Z,37.80
2022-08-31T12:02:23.055Z,31.68
2022-08-31T12:03:22.016Z,32.44
2022-08-31T12:04:22.140Z,38.96
2022-08-31T12:05:18.009Z,36.68
2022-08-31T12:06:17.443Z,22.36
2022-08-31T12:07:15.736Z,12.64
2022-08-31T12:08:15.866Z,29.20
2022-08-31T12:09:16.053Z,20.64
2022-08-31T12:10:19.032Z,38.08
2022-08-31T12:11:16.075Z,19.80
2022-08-31T12:12:17.601Z,36.44
2022-08-31T12:13:17.899Z,22.88
2022-08-31T12:14:16.406Z,34.12
2022-08-31T12:15:17.553Z,15.16
2022-08-31T12:16:18.651Z,29.68
2022-08-31T12:17:17.793Z,16.88
2022-08-31T12:18:18.118Z,24.92
2022-08-31T12:19:17.067Z,22.60
2022-08-31T12:20:16.887Z,29.80
2022-08-31T12:21:19.202Z,20.52
2022-08-31T12:22:18.082Z,22.28
2022-08-31T12:23:30.877Z,29.68
2022-08-31T12:24:18.867Z,11.36
2022-08-31T12:25:18.314Z,8.48
2022-08-31T12:26:15.250Z,26.20
2022-08-31T12:27:17.591Z,20.08
2022-08-31T12:28:16.722Z,37.72
2022-08-31T12:29:20.222Z,22.72
2022-08-31T12:30:17.845Z,27.96
2022-08-31T12:31:16.321Z,19.88
2022-08-31T12:32:19.471Z,9.00
2022-08-31T12:33:18.784Z,26.36
2022-08-31T12:34:18.823Z,31.84
2022-08-31T12:35:18.096Z,17.56
2022-08-31T12:36:19.449Z,19.80
2022-08-31T12:37:18.227Z,26.16
2022-08-31T12:38:17.625Z,17.20
2022-08-31T12:39:19.536Z,44.04
2022-08-31T12:40:18.279Z,20.68
2022-08-31T12:41:23.363Z,18.36
2022-08-31T12:42:20.298Z,41.20
2022-08-31T12:43:19.687Z,28.08
2022-08-31T12:44:18.566Z,26.80
2022-08-31T12:45:18.492Z,21.84
2022-08-31T12:46:17.313Z,24.00
2022-08-31T12:47:22.218Z,13.13
2022-08-31T12:48:18.555Z,14.60
2022-08-31T12:49:17.350Z,10.24
2022-08-31T12:50:19.782Z,10.60
2022-08-31T12:51:21.054Z,7.32
2022-08-31T12:52:18.692Z,21.08
2022-08-31T12:53:17.319Z,29.84
2022-08-31T12:54:19.057Z,25.96
2022-08-31T12:55:18.582Z,24.48
2022-08-31T12:56:18.695Z,25.60
2022-08-31T12:57:18.309Z,29.48
2022-08-31T12:58:19.727Z,34.32
2022-08-31T12:59:20.982Z,20.08
2022-08-31T13:00:18.410Z,8.36
2022-08-31T13:01:18.693Z,20.48
2022-08-31T13:02:18.426Z,19.44
2022-08-31T13:03:19.271Z,37.76
2022-08-31T13:04:19.853Z,26.76
2022-08-31T13:05:19.837Z,18.08
2022-08-31T13:06:18.209Z,25.16